sensor_id;sensor_type;location;lat;lon;timestamp;pressure;altitude;pressure_sealevel;temperature;humidity
72118;BME280;59992;47.490;8.736;2024-01-15T00:01:03;95647.65;;;1.65;91.07
72118;BME280;59992;47.490;8.736;2024-01-15T00:03:53;95644.53;;;1.65;90.95
72118;BME280;59992;47.490;8.736;2024-01-15T00:06:44;95637.99;;;1.59;90.94
72118;BME280;59992;47.490;8.736;2024-01-15T00:09:34;95626.52;;;1.60;90.79
72118;BME280;59992;47.490;8.736;2024-01-15T00:12:25;95617.23;;;1.56;91.00
72118;BME280;59992;47.490;8.736;2024-01-15T00:15:16;95618.23;;;1.60;90.93
72118;BME280;59992;47.490;8.736;2024-01-15T00:18:07;95612.50;;;1.61;90.97
72118;BME280;59992;47.490;8.736;2024-01-15T00:20:57;95601.84;;;1.51;91.21
72118;BME280;59992;47.490;8.736;2024-01-15T00:23:47;95593.45;;;1.54;90.95
72118;BME280;59992;47.490;8.736;2024-01-15T00:26:38;95592.27;;;1.55;91.07
72118;BME280;59992;47.490;8.736;2024-01-15T00:29:28;95598.80;;;1.56;90.90
72118;BME280;59992;47.490;8.736;2024-01-15T00:32:18;95616.05;;;1.57;91.47
72118;BME280;59992;47.490;8.736;2024-01-15T00:35:09;95620.61;;;1.59;91.20
72118;BME280;59992;47.490;8.736;2024-01-15T00:37:59;95621.52;;;1.60;91.84
72118;BME280;59992;47.490;8.736;2024-01-15T00:40:50;95622.47;;;1.60;91.05
72118;BME280;59992;47.490;8.736;2024-01-15T00:43:40;95617.91;;;1.59;90.78
72118;BME280;59992;47.490;8.736;2024-01-15T00:46:30;95618.77;;;1.53;91.22
72118;BME280;59992;47.490;8.736;2024-01-15T00:49:21;95615.89;;;1.54;91.15
72118;BME280;59992;47.490;8.736;2024-01-15T00:52:11;95605.37;;;1.54;91.00
72118;BME280;59992;47.490;8.736;2024-01-15T00:55:01;95609.64;;;1.54;91.06
72118;BME280;59992;47.490;8.736;2024-01-15T00:57:52;95607.25;;;1.48;91.11
72118;BME280;59992;47.490;8.736;2024-01-15T01:00:43;95609.55;;;1.49;91.48
72118;BME280;59992;47.490;8.736;2024-01-15T01:03:33;95614.95;;;1.50;91.37
72118;BME280;59992;47.490;8.736;2024-01-15T01:06:24;95612.06;;;1.46;91.54
72118;BME280;59992;47.490;8.736;2024-01-15T01:09:14;95613.55;;;1.48;91.51
72118;BME280;59992;47.490;8.736;2024-01-15T01:12:05;95616.72;;;1.47;91.38
72118;BME280;59992;47.490;8.736;2024-01-15T01:14:56;95620.23;;;1.46;91.62
72118;BME280;59992;47.490;8.736;2024-01-15T01:17:47;95623.05;;;1.47;91.45
72118;BME280;59992;47.490;8.736;2024-01-15T01:20:38;95631.30;;;1.48;91.35
72118;BME280;59992;47.490;8.736;2024-01-15T01:23:28;95623.30;;;1.50;91.34
72118;BME280;59992;47.490;8.736;2024-01-15T01:26:18;95618.94;;;1.52;91.32
72118;BME280;59992;47.490;8.736;2024-01-15T01:29:08;95617.83;;;1.52;91.14
72118;BME280;59992;47.490;8.736;2024-01-15T01:31:59;95616.27;;;1.52;91.18
72118;BME280;59992;47.490;8.736;2024-01-15T01:34:49;95624.66;;;1.51;91.04
72118;BME280;59992;47.490;8.736;2024-01-15T01:37:39;95636.80;;;1.45;91.01
72118;BME280;59992;47.490;8.736;2024-01-15T01:40:29;95640.25;;;1.48;90.74
72118;BME280;59992;47.490;8.736;2024-01-15T01:43:20;95645.17;;;1.49;91.24
72118;BME280;59992;47.490;8.736;2024-01-15T01:46:10;95645.69;;;1.43;89.95
72118;BME280;59992;47.490;8.736;2024-01-15T01:49:01;95648.02;;;1.39;89.34
72118;BME280;59992;47.490;8.736;2024-01-15T01:51:54;95657.44;;;1.38;89.25
72118;BME280;59992;47.490;8.736;2024-01-15T01:54:47;95654.48;;;1.36;88.56
72118;BME280;59992;47.490;8.736;2024-01-15T01:57:38;95657.11;;;1.33;88.44
72118;BME280;59992;47.490;8.736;2024-01-15T02:00:28;95665.16;;;1.28;87.45
72118;BME280;59992;47.490;8.736;2024-01-15T02:03:18;95671.19;;;1.23;87.71
72118;BME280;59992;47.490;8.736;2024-01-15T02:06:09;95665.35;;;1.14;87.32
72118;BME280;59992;47.490;8.736;2024-01-15T02:08:59;95668.70;;;1.14;86.76
72118;BME280;59992;47.490;8.736;2024-01-15T02:11:49;95669.66;;;1.09;86.89
72118;BME280;59992;47.490;8.736;2024-01-15T02:14:42;95676.48;;;1.06;87.06
72118;BME280;59992;47.490;8.736;2024-01-15T02:17:32;95682.03;;;1.05;87.04
72118;BME280;59992;47.490;8.736;2024-01-15T02:20:23;95681.17;;;0.99;87.72
72118;BME280;59992;47.490;8.736;2024-01-15T02:23:14;95672.41;;;0.85;87.20
72118;BME280;59992;47.490;8.736;2024-01-15T02:26:07;95679.69;;;0.85;87.22
72118;BME280;59992;47.490;8.736;2024-01-15T02:28:58;95676.73;;;0.83;87.12
72118;BME280;59992;47.490;8.736;2024-01-15T02:31:48;95669.12;;;0.83;87.02
72118;BME280;59992;47.490;8.736;2024-01-15T02:34:38;95664.77;;;0.71;86.70
72118;BME280;59992;47.490;8.736;2024-01-15T02:37:28;95664.05;;;0.72;86.59
72118;BME280;59992;47.490;8.736;2024-01-15T02:40:18;95660.13;;;0.71;86.62
72118;BME280;59992;47.490;8.736;2024-01-15T02:43:09;95660.33;;;0.58;86.28
72118;BME280;59992;47.490;8.736;2024-01-15T02:45:59;95657.85;;;0.60;86.55
72118;BME280;59992;47.490;8.736;2024-01-15T02:48:49;95660.30;;;0.55;86.63
72118;BME280;59992;47.490;8.736;2024-01-15T02:51:39;95666.23;;;0.56;86.55
72118;BME280;59992;47.490;8.736;2024-01-15T02:54:30;95661.70;;;0.49;86.43
72118;BME280;59992;47.490;8.736;2024-01-15T02:57:20;95658.88;;;0.49;86.27
72118;BME280;59992;47.490;8.736;2024-01-15T03:00:11;95662.48;;;0.52;85.98
72118;BME280;59992;47.490;8.736;2024-01-15T03:03:02;95658.35;;;0.51;85.85
72118;BME280;59992;47.490;8.736;2024-01-15T03:05:54;95653.07;;;0.47;85.42
72118;BME280;59992;47.490;8.736;2024-01-15T03:08:44;95647.05;;;0.52;85.39
72118;BME280;59992;47.490;8.736;2024-01-15T03:11:40;95642.82;;;0.49;85.43
72118;BME280;59992;47.490;8.736;2024-01-15T03:14:31;95643.53;;;0.47;84.52
72118;BME280;59992;47.490;8.736;2024-01-15T03:17:21;95638.56;;;0.47;83.98
72118;BME280;59992;47.490;8.736;2024-01-15T03:20:12;95626.74;;;0.36;83.54
72118;BME280;59992;47.490;8.736;2024-01-15T03:23:03;95637.67;;;0.43;82.97
72118;BME280;59992;47.490;8.736;2024-01-15T03:25:53;95636.80;;;0.42;83.64
72118;BME280;59992;47.490;8.736;2024-01-15T03:28:43;95637.84;;;0.40;83.21
72118;BME280;59992;47.490;8.736;2024-01-15T03:31:33;95636.88;;;0.44;83.58
72118;BME280;59992;47.490;8.736;2024-01-15T03:34:24;95639.08;;;0.33;82.69
72118;BME280;59992;47.490;8.736;2024-01-15T03:37:14;95641.33;;;0.39;82.90
72118;BME280;59992;47.490;8.736;2024-01-15T03:40:06;95640.27;;;0.35;82.86
72118;BME280;59992;47.490;8.736;2024-01-15T03:42:56;95636.95;;;0.36;82.31
72118;BME280;59992;47.490;8.736;2024-01-15T03:45:47;95634.10;;;0.35;82.10
72118;BME280;59992;47.490;8.736;2024-01-15T03:48:37;95630.94;;;0.32;81.77
72118;BME280;59992;47.490;8.736;2024-01-15T03:51:27;95625.89;;;0.29;81.17
72118;BME280;59992;47.490;8.736;2024-01-15T03:54:17;95627.52;;;0.28;81.27
72118;BME280;59992;47.490;8.736;2024-01-15T03:57:08;95630.85;;;0.28;81.20
72118;BME280;59992;47.490;8.736;2024-01-15T03:59:58;95629.16;;;0.25;81.06
72118;BME280;59992;47.490;8.736;2024-01-15T04:02:49;95632.65;;;0.30;81.43
72118;BME280;59992;47.490;8.736;2024-01-15T04:05:39;95634.56;;;0.33;81.40
72118;BME280;59992;47.490;8.736;2024-01-15T04:08:29;95638.15;;;0.32;81.56
72118;BME280;59992;47.490;8.736;2024-01-15T04:11:20;95633.67;;;0.32;81.21
72118;BME280;59992;47.490;8.736;2024-01-15T04:14:11;95632.19;;;0.34;80.97
72118;BME280;59992;47.490;8.736;2024-01-15T04:17:01;95628.03;;;0.32;80.65
72118;BME280;59992;47.490;8.736;2024-01-15T04:19:52;95627.77;;;0.33;80.98
72118;BME280;59992;47.490;8.736;2024-01-15T04:22:42;95627.80;;;0.34;80.60
72118;BME280;59992;47.490;8.736;2024-01-15T04:25:33;95631.03;;;0.33;80.36
72118;BME280;59992;47.490;8.736;2024-01-15T04:28:24;95629.64;;;0.34;80.41
72118;BME280;59992;47.490;8.736;2024-01-15T04:31:24;95636.95;;;0.34;80.67
72118;BME280;59992;47.490;8.736;2024-01-15T04:34:16;95635.18;;;0.35;80.45
72118;BME280;59992;47.490;8.736;2024-01-15T04:37:06;95638.77;;;0.33;80.89
72118;BME280;59992;47.490;8.736;2024-01-15T04:39:57;95634.91;;;0.35;81.00
72118;BME280;59992;47.490;8.736;2024-01-15T04:42:47;95635.17;;;0.36;80.53
72118;BME280;59992;47.490;8.736;2024-01-15T04:45:38;95628.31;;;0.36;80.18
72118;BME280;59992;47.490;8.736;2024-01-15T04:48:28;95631.39;;;0.35;80.42
72118;BME280;59992;47.490;8.736;2024-01-15T04:51:19;95618.63;;;0.34;80.20
72118;BME280;59992;47.490;8.736;2024-01-15T04:54:09;95618.28;;;0.28;80.13
72118;BME280;59992;47.490;8.736;2024-01-15T04:57:00;95624.27;;;0.29;80.25
72118;BME280;59992;47.490;8.736;2024-01-15T04:59:51;95622.27;;;0.29;80.76
72118;BME280;59992;47.490;8.736;2024-01-15T05:02:42;95615.99;;;0.31;79.85
72118;BME280;59992;47.490;8.736;2024-01-15T05:05:33;95615.95;;;0.32;80.62
72118;BME280;59992;47.490;8.736;2024-01-15T05:08:23;95618.49;;;0.32;80.61
72118;BME280;59992;47.490;8.736;2024-01-15T05:11:13;95613.98;;;0.33;80.26
72118;BME280;59992;47.490;8.736;2024-01-15T05:14:04;95611.66;;;0.31;79.99
72118;BME280;59992;47.490;8.736;2024-01-15T05:16:54;95606.98;;;0.31;80.88
72118;BME280;59992;47.490;8.736;2024-01-15T05:19:44;95604.02;;;0.32;79.84
72118;BME280;59992;47.490;8.736;2024-01-15T05:22:35;95604.59;;;0.35;79.80
72118;BME280;59992;47.490;8.736;2024-01-15T05:25:25;95607.44;;;0.35;80.50
72118;BME280;59992;47.490;8.736;2024-01-15T05:28:16;95610.36;;;0.36;80.48
72118;BME280;59992;47.490;8.736;2024-01-15T05:31:07;95615.06;;;0.36;80.96
72118;BME280;59992;47.490;8.736;2024-01-15T05:33:57;95607.14;;;0.33;80.33
72118;BME280;59992;47.490;8.736;2024-01-15T05:36:48;95610.70;;;0.33;80.50
72118;BME280;59992;47.490;8.736;2024-01-15T05:39:38;95612.37;;;0.36;81.02
72118;BME280;59992;47.490;8.736;2024-01-15T05:42:28;95617.21;;;0.36;80.96
72118;BME280;59992;47.490;8.736;2024-01-15T05:45:19;95612.59;;;0.40;81.09
72118;BME280;59992;47.490;8.736;2024-01-15T05:48:09;95611.33;;;0.40;80.75
72118;BME280;59992;47.490;8.736;2024-01-15T05:51:00;95601.27;;;0.42;80.64
72118;BME280;59992;47.490;8.736;2024-01-15T05:53:50;95599.30;;;0.41;80.53
72118;BME280;59992;47.490;8.736;2024-01-15T05:56:41;95602.75;;;0.42;81.07
72118;BME280;59992;47.490;8.736;2024-01-15T05:59:31;95605.80;;;0.40;80.92
72118;BME280;59992;47.490;8.736;2024-01-15T06:02:25;95602.88;;;0.41;80.74
72118;BME280;59992;47.490;8.736;2024-01-15T06:05:15;95606.75;;;0.39;80.84
72118;BME280;59992;47.490;8.736;2024-01-15T06:08:06;95596.16;;;0.34;80.50
72118;BME280;59992;47.490;8.736;2024-01-15T06:10:57;95596.06;;;0.34;80.92
72118;BME280;59992;47.490;8.736;2024-01-15T06:13:47;95593.06;;;0.29;80.67
72118;BME280;59992;47.490;8.736;2024-01-15T06:16:38;95596.26;;;0.29;80.80
72118;BME280;59992;47.490;8.736;2024-01-15T06:19:28;95589.30;;;0.32;80.71
72118;BME280;59992;47.490;8.736;2024-01-15T06:22:19;95585.92;;;0.33;80.51
72118;BME280;59992;47.490;8.736;2024-01-15T06:25:10;95594.59;;;0.34;80.98
72118;BME280;59992;47.490;8.736;2024-01-15T06:28:00;95594.73;;;0.36;81.29
72118;BME280;59992;47.490;8.736;2024-01-15T06:30:50;95598.21;;;0.35;80.42
72118;BME280;59992;47.490;8.736;2024-01-15T06:33:40;95599.59;;;0.26;81.16
72118;BME280;59992;47.490;8.736;2024-01-15T06:36:31;95598.84;;;0.28;81.18
72118;BME280;59992;47.490;8.736;2024-01-15T06:39:21;95596.81;;;0.26;81.12
72118;BME280;59992;47.490;8.736;2024-01-15T06:42:11;95595.83;;;0.29;81.52
72118;BME280;59992;47.490;8.736;2024-01-15T06:45:02;95594.75;;;0.30;81.41
72118;BME280;59992;47.490;8.736;2024-01-15T06:47:52;95591.24;;;0.32;81.35
72118;BME280;59992;47.490;8.736;2024-01-15T06:50:43;95593.48;;;0.32;81.30
72118;BME280;59992;47.490;8.736;2024-01-15T06:53:33;95597.42;;;0.28;81.23
72118;BME280;59992;47.490;8.736;2024-01-15T06:56:24;95604.30;;;0.27;81.52
72118;BME280;59992;47.490;8.736;2024-01-15T06:59:14;95598.91;;;0.30;80.96
72118;BME280;59992;47.490;8.736;2024-01-15T07:02:05;95595.55;;;0.30;81.11
72118;BME280;59992;47.490;8.736;2024-01-15T07:04:55;95591.98;;;0.28;81.37
72118;BME280;59992;47.490;8.736;2024-01-15T07:07:45;95588.41;;;0.30;81.82
72118;BME280;59992;47.490;8.736;2024-01-15T07:10:37;95587.33;;;0.29;81.74
72118;BME280;59992;47.490;8.736;2024-01-15T07:13:27;95586.23;;;0.28;81.42
72118;BME280;59992;47.490;8.736;2024-01-15T07:16:19;95584.36;;;0.29;81.51
72118;BME280;59992;47.490;8.736;2024-01-15T07:19:09;95585.21;;;0.30;81.82
72118;BME280;59992;47.490;8.736;2024-01-15T07:22:00;95602.28;;;0.31;81.80
72118;BME280;59992;47.490;8.736;2024-01-15T07:24:50;95607.70;;;0.32;81.72
72118;BME280;59992;47.490;8.736;2024-01-15T07:27:41;95606.70;;;0.35;81.49
72118;BME280;59992;47.490;8.736;2024-01-15T07:30:34;95605.83;;;0.36;81.71
72118;BME280;59992;47.490;8.736;2024-01-15T07:33:28;95605.95;;;0.37;81.16
72118;BME280;59992;47.490;8.736;2024-01-15T07:36:18;95607.33;;;0.38;80.82
72118;BME280;59992;47.490;8.736;2024-01-15T07:39:08;95598.59;;;0.38;80.94
72118;BME280;59992;47.490;8.736;2024-01-15T07:42:00;95596.67;;;0.36;81.08
72118;BME280;59992;47.490;8.736;2024-01-15T07:44:50;95604.15;;;0.39;81.79
72118;BME280;59992;47.490;8.736;2024-01-15T07:47:41;95608.80;;;0.38;81.17
72118;BME280;59992;47.490;8.736;2024-01-15T07:50:32;95613.82;;;0.39;80.62
72118;BME280;59992;47.490;8.736;2024-01-15T07:53:22;95607.75;;;0.34;80.96
72118;BME280;59992;47.490;8.736;2024-01-15T07:56:15;95608.50;;;0.40;80.59
72118;BME280;59992;47.490;8.736;2024-01-15T07:59:05;95612.20;;;0.41;80.86
72118;BME280;59992;47.490;8.736;2024-01-15T08:01:55;95614.47;;;0.40;80.72
72118;BME280;59992;47.490;8.736;2024-01-15T08:04:46;95613.78;;;0.42;80.50
72118;BME280;59992;47.490;8.736;2024-01-15T08:07:36;95612.57;;;0.41;80.45
72118;BME280;59992;47.490;8.736;2024-01-15T08:10:26;95613.17;;;0.43;80.82
72118;BME280;59992;47.490;8.736;2024-01-15T08:13:16;95618.95;;;0.49;80.48
72118;BME280;59992;47.490;8.736;2024-01-15T08:16:07;95621.79;;;0.53;80.38
72118;BME280;59992;47.490;8.736;2024-01-15T08:18:57;95617.00;;;0.55;79.90
72118;BME280;59992;47.490;8.736;2024-01-15T08:21:48;95613.89;;;0.57;80.45
72118;BME280;59992;47.490;8.736;2024-01-15T08:24:38;95611.60;;;0.57;80.05
72118;BME280;59992;47.490;8.736;2024-01-15T08:27:28;95610.46;;;0.59;79.74
72118;BME280;59992;47.490;8.736;2024-01-15T08:30:19;95610.27;;;0.62;80.47
72118;BME280;59992;47.490;8.736;2024-01-15T08:33:11;95614.02;;;0.67;79.72
72118;BME280;59992;47.490;8.736;2024-01-15T08:36:02;95618.38;;;0.73;79.88
72118;BME280;59992;47.490;8.736;2024-01-15T08:38:52;95623.04;;;0.78;80.15
72118;BME280;59992;47.490;8.736;2024-01-15T08:41:42;95622.19;;;0.77;79.49
72118;BME280;59992;47.490;8.736;2024-01-15T08:44:33;95624.41;;;0.79;79.51
72118;BME280;59992;47.490;8.736;2024-01-15T08:47:23;95628.77;;;0.78;79.41
72118;BME280;59992;47.490;8.736;2024-01-15T08:50:14;95631.48;;;0.81;79.22
72118;BME280;59992;47.490;8.736;2024-01-15T08:53:05;95623.00;;;0.68;78.54
72118;BME280;59992;47.490;8.736;2024-01-15T08:55:56;95629.27;;;0.66;78.67
72118;BME280;59992;47.490;8.736;2024-01-15T08:58:46;95627.30;;;0.64;78.97
72118;BME280;59992;47.490;8.736;2024-01-15T09:01:36;95626.63;;;0.67;78.98
72118;BME280;59992;47.490;8.736;2024-01-15T09:04:28;95625.65;;;0.63;78.73
72118;BME280;59992;47.490;8.736;2024-01-15T09:07:18;95628.48;;;0.61;79.05
72118;BME280;59992;47.490;8.736;2024-01-15T09:10:09;95625.05;;;0.61;79.25
72118;BME280;59992;47.490;8.736;2024-01-15T09:13:00;95634.29;;;0.61;78.90
72118;BME280;59992;47.490;8.736;2024-01-15T09:15:53;95640.23;;;0.67;79.17
72118;BME280;59992;47.490;8.736;2024-01-15T09:18:43;95634.85;;;0.56;79.29
72118;BME280;59992;47.490;8.736;2024-01-15T09:21:33;95633.23;;;0.63;79.08
72118;BME280;59992;47.490;8.736;2024-01-15T09:24:23;95624.85;;;0.66;79.21
72118;BME280;59992;47.490;8.736;2024-01-15T09:27:13;95622.18;;;0.71;78.83
72118;BME280;59992;47.490;8.736;2024-01-15T09:30:04;95623.51;;;0.74;78.80
72118;BME280;59992;47.490;8.736;2024-01-15T09:32:55;95623.39;;;0.77;78.38
72118;BME280;59992;47.490;8.736;2024-01-15T09:35:46;95619.36;;;0.75;77.79
72118;BME280;59992;47.490;8.736;2024-01-15T09:38:37;95618.85;;;0.82;77.84
72118;BME280;59992;47.490;8.736;2024-01-15T09:41:27;95625.69;;;0.83;77.22
72118;BME280;59992;47.490;8.736;2024-01-15T09:44:18;95625.19;;;0.88;77.38
72118;BME280;59992;47.490;8.736;2024-01-15T09:47:10;95616.17;;;0.88;77.47
72118;BME280;59992;47.490;8.736;2024-01-15T09:50:01;95616.96;;;0.92;77.08
72118;BME280;59992;47.490;8.736;2024-01-15T09:52:52;95615.02;;;0.96;76.80
72118;BME280;59992;47.490;8.736;2024-01-15T09:55:46;95616.73;;;0.94;76.03
72118;BME280;59992;47.490;8.736;2024-01-15T09:58:37;95613.20;;;0.97;75.74
72118;BME280;59992;47.490;8.736;2024-01-15T10:01:29;95604.82;;;1.01;75.42
72118;BME280;59992;47.490;8.736;2024-01-15T10:04:21;95601.11;;;1.00;75.28
72118;BME280;59992;47.490;8.736;2024-01-15T10:07:15;95607.46;;;1.09;75.00
72118;BME280;59992;47.490;8.736;2024-01-15T10:10:06;95602.30;;;1.10;74.72
72118;BME280;59992;47.490;8.736;2024-01-15T10:12:58;95598.48;;;1.19;75.90
72118;BME280;59992;47.490;8.736;2024-01-15T10:15:49;95599.14;;;1.25;75.14
72118;BME280;59992;47.490;8.736;2024-01-15T10:18:39;95596.42;;;1.33;75.58
72118;BME280;59992;47.490;8.736;2024-01-15T10:21:30;95599.34;;;1.38;75.60
72118;BME280;59992;47.490;8.736;2024-01-15T10:24:21;95592.87;;;1.39;74.24
72118;BME280;59992;47.490;8.736;2024-01-15T10:27:13;95584.03;;;1.45;74.57
72118;BME280;59992;47.490;8.736;2024-01-15T10:30:04;95579.48;;;1.47;74.58
72118;BME280;59992;47.490;8.736;2024-01-15T10:33:00;95567.62;;;1.47;74.66
72118;BME280;59992;47.490;8.736;2024-01-15T10:35:51;95561.54;;;1.43;73.97
72118;BME280;59992;47.490;8.736;2024-01-15T10:38:44;95553.16;;;1.52;73.92
72118;BME280;59992;47.490;8.736;2024-01-15T10:41:34;95549.04;;;1.54;73.19
72118;BME280;59992;47.490;8.736;2024-01-15T10:44:25;95546.20;;;1.47;72.79
72118;BME280;59992;47.490;8.736;2024-01-15T10:47:16;95542.98;;;1.51;72.69
72118;BME280;59992;47.490;8.736;2024-01-15T10:50:08;95543.89;;;1.59;72.17
72118;BME280;59992;47.490;8.736;2024-01-15T10:52:59;95537.59;;;1.58;71.84
72118;BME280;59992;47.490;8.736;2024-01-15T10:55:51;95538.77;;;1.70;72.40
72118;BME280;59992;47.490;8.736;2024-01-15T10:58:43;95531.48;;;1.66;70.65
72118;BME280;59992;47.490;8.736;2024-01-15T11:01:33;95527.55;;;1.64;71.47
72118;BME280;59992;47.490;8.736;2024-01-15T11:04:24;95533.60;;;1.79;71.42
72118;BME280;59992;47.490;8.736;2024-01-15T11:07:17;95530.78;;;1.90;72.09
72118;BME280;59992;47.490;8.736;2024-01-15T11:10:44;95535.02;;;1.98;70.43
72118;BME280;59992;47.490;8.736;2024-01-15T11:13:42;95534.97;;;2.06;70.36
72118;BME280;59992;47.490;8.736;2024-01-15T11:16:54;95530.61;;;2.10;69.38
72118;BME280;59992;47.490;8.736;2024-01-15T11:19:50;95530.19;;;2.09;70.00
72118;BME280;59992;47.490;8.736;2024-01-15T11:22:52;95525.16;;;2.15;69.78
72118;BME280;59992;47.490;8.736;2024-01-15T11:25:45;95514.19;;;2.21;69.59
72118;BME280;59992;47.490;8.736;2024-01-15T11:28:49;95511.28;;;2.16;70.03
72118;BME280;59992;47.490;8.736;2024-01-15T11:32:09;95518.28;;;2.10;69.81
72118;BME280;59992;47.490;8.736;2024-01-15T11:35:00;95517.09;;;2.18;70.05
72118;BME280;59992;47.490;8.736;2024-01-15T11:38:00;95515.58;;;2.31;70.95
72118;BME280;59992;47.490;8.736;2024-01-15T11:40:51;95511.66;;;2.37;70.82
72118;BME280;59992;47.490;8.736;2024-01-15T11:43:41;95503.09;;;2.38;70.52
72118;BME280;59992;47.490;8.736;2024-01-15T11:46:34;95493.55;;;2.40;70.12
72118;BME280;59992;47.490;8.736;2024-01-15T11:49:45;95496.46;;;2.31;69.93
72118;BME280;59992;47.490;8.736;2024-01-15T11:52:40;95487.25;;;2.41;70.25
72118;BME280;59992;47.490;8.736;2024-01-15T11:55:41;95482.82;;;2.52;70.54
72118;BME280;59992;47.490;8.736;2024-01-15T11:58:34;95485.89;;;2.52;70.18
72118;BME280;59992;47.490;8.736;2024-01-15T12:01:26;95484.33;;;2.52;69.05
72118;BME280;59992;47.490;8.736;2024-01-15T12:04:16;95487.40;;;2.62;70.61
72118;BME280;59992;47.490;8.736;2024-01-15T12:07:08;95482.45;;;2.49;68.49
72118;BME280;59992;47.490;8.736;2024-01-15T12:09:59;95481.89;;;2.59;69.02
72118;BME280;59992;47.490;8.736;2024-01-15T12:12:57;95480.28;;;2.66;72.32
72118;BME280;59992;47.490;8.736;2024-01-15T12:15:49;95478.21;;;2.70;70.00
72118;BME280;59992;47.490;8.736;2024-01-15T12:18:39;95480.81;;;2.66;68.14
72118;BME280;59992;47.490;8.736;2024-01-15T12:21:30;95477.00;;;2.66;68.30
72118;BME280;59992;47.490;8.736;2024-01-15T12:24:21;95480.08;;;2.77;71.75
72118;BME280;59992;47.490;8.736;2024-01-15T12:27:11;95482.61;;;2.85;69.95
72118;BME280;59992;47.490;8.736;2024-01-15T12:30:01;95480.14;;;2.91;68.59
72118;BME280;59992;47.490;8.736;2024-01-15T12:32:51;95473.09;;;2.93;68.45
72118;BME280;59992;47.490;8.736;2024-01-15T12:35:42;95487.42;;;3.04;69.20
72118;BME280;59992;47.490;8.736;2024-01-15T12:38:32;95485.11;;;3.10;69.62
72118;BME280;59992;47.490;8.736;2024-01-15T12:41:24;95481.11;;;3.12;67.64
72118;BME280;59992;47.490;8.736;2024-01-15T12:44:15;95478.32;;;3.21;68.65
72118;BME280;59992;47.490;8.736;2024-01-15T12:47:06;95486.67;;;3.29;68.75
72118;BME280;59992;47.490;8.736;2024-01-15T12:49:57;95485.55;;;3.32;67.18
72118;BME280;59992;47.490;8.736;2024-01-15T12:52:48;95484.67;;;3.36;68.24
72118;BME280;59992;47.490;8.736;2024-01-15T12:55:38;95484.27;;;3.35;66.19
72118;BME280;59992;47.490;8.736;2024-01-15T12:58:29;95492.24;;;3.34;65.34
72118;BME280;59992;47.490;8.736;2024-01-15T13:01:19;95490.39;;;3.41;66.48
72118;BME280;59992;47.490;8.736;2024-01-15T13:04:10;95484.38;;;3.40;65.15
72118;BME280;59992;47.490;8.736;2024-01-15T13:07:01;95481.12;;;3.44;66.67
72118;BME280;59992;47.490;8.736;2024-01-15T13:09:51;95482.77;;;3.48;65.93
72118;BME280;59992;47.490;8.736;2024-01-15T13:12:42;95478.00;;;3.46;63.79
72118;BME280;59992;47.490;8.736;2024-01-15T13:15:33;95475.65;;;3.51;66.01
72118;BME280;59992;47.490;8.736;2024-01-15T13:18:23;95473.00;;;3.56;67.61
72118;BME280;59992;47.490;8.736;2024-01-15T13:21:13;95468.52;;;3.57;66.33
72118;BME280;59992;47.490;8.736;2024-01-15T13:24:04;95477.16;;;3.62;66.93
72118;BME280;59992;47.490;8.736;2024-01-15T13:26:54;95474.02;;;3.55;64.76
72118;BME280;59992;47.490;8.736;2024-01-15T13:29:46;95477.64;;;3.53;64.83
72118;BME280;59992;47.490;8.736;2024-01-15T13:32:36;95485.50;;;3.56;66.20
72118;BME280;59992;47.490;8.736;2024-01-15T13:35:27;95490.72;;;3.55;65.39
72118;BME280;59992;47.490;8.736;2024-01-15T13:38:17;95487.27;;;3.58;65.97
72118;BME280;59992;47.490;8.736;2024-01-15T13:41:07;95492.73;;;3.58;65.52
72118;BME280;59992;47.490;8.736;2024-01-15T13:43:57;95493.50;;;3.56;65.46
72118;BME280;59992;47.490;8.736;2024-01-15T13:46:48;95494.13;;;3.44;64.96
72118;BME280;59992;47.490;8.736;2024-01-15T13:49:39;95493.06;;;3.34;65.84
72118;BME280;59992;47.490;8.736;2024-01-15T13:52:29;95502.14;;;3.28;66.15
72118;BME280;59992;47.490;8.736;2024-01-15T13:55:20;95507.83;;;3.29;66.94
72118;BME280;59992;47.490;8.736;2024-01-15T13:58:10;95511.86;;;3.28;67.26
72118;BME280;59992;47.490;8.736;2024-01-15T14:01:01;95512.41;;;3.23;67.25
72118;BME280;59992;47.490;8.736;2024-01-15T14:03:53;95521.42;;;3.27;68.04
72118;BME280;59992;47.490;8.736;2024-01-15T14:06:43;95531.04;;;3.20;67.37
72118;BME280;59992;47.490;8.736;2024-01-15T14:09:34;95534.48;;;3.11;69.61
72118;BME280;59992;47.490;8.736;2024-01-15T14:12:26;95535.23;;;3.11;69.97
72118;BME280;59992;47.490;8.736;2024-01-15T14:15:16;95534.30;;;3.00;70.21
72118;BME280;59992;47.490;8.736;2024-01-15T14:18:08;95532.95;;;2.94;70.25
72118;BME280;59992;47.490;8.736;2024-01-15T14:20:58;95533.65;;;2.87;70.41
72118;BME280;59992;47.490;8.736;2024-01-15T14:23:48;95541.55;;;2.83;71.05
72118;BME280;59992;47.490;8.736;2024-01-15T14:26:39;95539.45;;;2.83;71.34
72118;BME280;59992;47.490;8.736;2024-01-15T14:29:30;95544.95;;;2.84;72.33
72118;BME280;59992;47.490;8.736;2024-01-15T14:32:21;95546.79;;;2.83;72.23
72118;BME280;59992;47.490;8.736;2024-01-15T14:35:11;95552.23;;;2.68;71.61
72118;BME280;59992;47.490;8.736;2024-01-15T14:38:02;95557.36;;;2.67;72.30
72118;BME280;59992;47.490;8.736;2024-01-15T14:40:52;95574.74;;;2.66;72.42
72118;BME280;59992;47.490;8.736;2024-01-15T14:43:43;95570.77;;;2.62;72.75
72118;BME280;59992;47.490;8.736;2024-01-15T14:46:33;95578.64;;;2.61;72.87
72118;BME280;59992;47.490;8.736;2024-01-15T14:49:24;95577.98;;;2.60;73.25
72118;BME280;59992;47.490;8.736;2024-01-15T14:52:15;95579.17;;;2.53;73.05
72118;BME280;59992;47.490;8.736;2024-01-15T14:55:07;95583.18;;;2.52;73.43
72118;BME280;59992;47.490;8.736;2024-01-15T14:57:57;95586.88;;;2.50;74.16
72118;BME280;59992;47.490;8.736;2024-01-15T15:00:48;95595.59;;;2.36;73.64
72118;BME280;59992;47.490;8.736;2024-01-15T15:03:39;95604.84;;;2.36;75.52
72118;BME280;59992;47.490;8.736;2024-01-15T15:06:30;95615.89;;;2.30;74.38
72118;BME280;59992;47.490;8.736;2024-01-15T15:09:20;95624.04;;;2.25;74.81
72118;BME280;59992;47.490;8.736;2024-01-15T15:12:11;95626.73;;;2.18;75.15
72118;BME280;59992;47.490;8.736;2024-01-15T15:15:02;95626.27;;;2.15;75.16
72118;BME280;59992;47.490;8.736;2024-01-15T15:17:53;95630.60;;;2.05;75.36